sensor_id;sensor_type;location;lat;lon;timestamp;temperature;humidity
6639;DHT22;3355;52.882;8.430;2022-07-04T00:01:12;16.00;99.90
6639;DHT22;3355;52.882;8.430;2022-07-04T00:03:39;15.90;99.90
6639;DHT22;3355;52.882;8.430;2022-07-04T00:06:07;15.90;99.90
6639;DHT22;3355;52.882;8.430;2022-07-04T00:08:34;15.90;99.90
6639;DHT22;3355;52.882;8.430;2022-07-04T00:11:00;15.80;99.90
6639;DHT22;3355;52.882;8.430;2022-07-04T00:13:27;15.80;99.90
6639;DHT22;3355;52.882;8.430;2022-07-04T00:15:54;15.80;99.90
6639;DHT22;3355;52.882;8.430;2022-07-04T00:18:21;15.80;99.90
6639;DHT22;3355;52.882;8.430;2022-07-04T00:20:48;15.70;99.90
6639;DHT22;3355;52.882;8.430;2022-07-04T00:23:16;15.70;99.90
6639;DHT22;3355;52.882;8.430;2022-07-04T00:25:42;15.60;99.90
6639;DHT22;3355;52.882;8.430;2022-07-04T00:28:09;15.60;99.90
6639;DHT22;3355;52.882;8.430;2022-07-04T00:30:36;15.60;99.90
6639;DHT22;3355;52.882;8.430;2022-07-04T00:33:03;15.60;99.90
6639;DHT22;3355;52.882;8.430;2022-07-04T00:35:29;15.60;99.90
6639;DHT22;3355;52.882;8.430;2022-07-04T00:37:56;15.50;99.90
6639;DHT22;3355;52.882;8.430;2022-07-04T00:40:24;15.50;99.90
6639;DHT22;3355;52.882;8.430;2022-07-04T00:42:51;15.50;99.90
6639;DHT22;3355;52.882;8.430;2022-07-04T00:45:18;15.50;99.90
6639;DHT22;3355;52.882;8.430;2022-07-04T00:47:45;15.40;99.90
6639;DHT22;3355;52.882;8.430;2022-07-04T00:50:12;15.40;99.90
6639;DHT22;3355;52.882;8.430;2022-07-04T00:52:39;15.40;99.90
6639;DHT22;3355;52.882;8.430;2022-07-04T00:55:06;15.40;99.90
6639;DHT22;3355;52.882;8.430;2022-07-04T00:57:35;15.40;99.90
6639;DHT22;3355;52.882;8.430;2022-07-04T01:00:02;15.30;99.90
6639;DHT22;3355;52.882;8.430;2022-07-04T01:02:29;15.30;99.90
6639;DHT22;3355;52.882;8.430;2022-07-04T01:04:56;15.30;99.90
6639;DHT22;3355;52.882;8.430;2022-07-04T01:07:22;15.20;99.90
6639;DHT22;3355;52.882;8.430;2022-07-04T01:09:49;15.20;99.90
6639;DHT22;3355;52.882;8.430;2022-07-04T01:12:25;15.20;99.90
6639;DHT22;3355;52.882;8.430;2022-07-04T01:14:53;15.20;99.90
6639;DHT22;3355;52.882;8.430;2022-07-04T01:17:20;15.10;99.90
6639;DHT22;3355;52.882;8.430;2022-07-04T01:19:47;15.10;99.90
6639;DHT22;3355;52.882;8.430;2022-07-04T01:22:15;15.10;99.90
6639;DHT22;3355;52.882;8.430;2022-07-04T01:24:42;15.10;99.90
6639;DHT22;3355;52.882;8.430;2022-07-04T01:27:09;15.10;99.90
6639;DHT22;3355;52.882;8.430;2022-07-04T01:29:36;15.10;99.90
6639;DHT22;3355;52.882;8.430;2022-07-04T01:32:06;15.00;99.90
6639;DHT22;3355;52.882;8.430;2022-07-04T01:34:34;15.00;99.90
6639;DHT22;3355;52.882;8.430;2022-07-04T01:37:01;15.00;99.90
6639;DHT22;3355;52.882;8.430;2022-07-04T01:39:29;15.00;99.90
6639;DHT22;3355;52.882;8.430;2022-07-04T01:41:56;15.00;99.90
6639;DHT22;3355;52.882;8.430;2022-07-04T01:44:23;15.00;99.90
6639;DHT22;3355;52.882;8.430;2022-07-04T01:46:49;14.90;99.90
6639;DHT22;3355;52.882;8.430;2022-07-04T01:49:16;14.90;99.90
6639;DHT22;3355;52.882;8.430;2022-07-04T01:51:44;14.90;99.90
6639;DHT22;3355;52.882;8.430;2022-07-04T01:54:11;14.80;99.90
6639;DHT22;3355;52.882;8.430;2022-07-04T01:56:40;14.80;99.90
6639;DHT22;3355;52.882;8.430;2022-07-04T01:59:07;14.80;99.90
6639;DHT22;3355;52.882;8.430;2022-07-04T02:01:34;14.80;99.90
6639;DHT22;3355;52.882;8.430;2022-07-04T02:04:01;14.80;99.90
6639;DHT22;3355;52.882;8.430;2022-07-04T02:06:29;14.80;99.90
6639;DHT22;3355;52.882;8.430;2022-07-04T02:08:56;14.80;99.90
6639;DHT22;3355;52.882;8.430;2022-07-04T02:11:42;14.70;99.90
6639;DHT22;3355;52.882;8.430;2022-07-04T02:14:27;14.70;99.90
6639;DHT22;3355;52.882;8.430;2022-07-04T02:16:54;14.70;99.90
6639;DHT22;3355;52.882;8.430;2022-07-04T02:19:21;14.70;99.90
6639;DHT22;3355;52.882;8.430;2022-07-04T02:21:47;14.60;99.90
6639;DHT22;3355;52.882;8.430;2022-07-04T02:24:14;14.60;99.90
6639;DHT22;3355;52.882;8.430;2022-07-04T02:26:42;14.60;99.90
6639;DHT22;3355;52.882;8.430;2022-07-04T02:29:09;14.60;99.90
6639;DHT22;3355;52.882;8.430;2022-07-04T02:31:36;14.60;99.90
6639;DHT22;3355;52.882;8.430;2022-07-04T02:34:02;14.50;99.90
6639;DHT22;3355;52.882;8.430;2022-07-04T02:36:29;14.50;99.90
6639;DHT22;3355;52.882;8.430;2022-07-04T02:38:56;14.50;99.90
6639;DHT22;3355;52.882;8.430;2022-07-04T02:41:22;14.50;99.90
6639;DHT22;3355;52.882;8.430;2022-07-04T02:43:51;14.50;99.90
6639;DHT22;3355;52.882;8.430;2022-07-04T02:46:18;14.50;99.90
6639;DHT22;3355;52.882;8.430;2022-07-04T02:48:44;14.50;99.90
6639;DHT22;3355;52.882;8.430;2022-07-04T02:51:11;14.40;99.90
6639;DHT22;3355;52.882;8.430;2022-07-04T02:53:38;14.40;99.90
6639;DHT22;3355;52.882;8.430;2022-07-04T02:56:04;14.40;99.90
6639;DHT22;3355;52.882;8.430;2022-07-04T02:58:32;14.40;99.90
6639;DHT22;3355;52.882;8.430;2022-07-04T03:01:00;14.30;99.90
6639;DHT22;3355;52.882;8.430;2022-07-04T03:03:27;14.30;99.90
6639;DHT22;3355;52.882;8.430;2022-07-04T03:05:54;14.30;99.90
6639;DHT22;3355;52.882;8.430;2022-07-04T03:08:21;14.20;99.90
6639;DHT22;3355;52.882;8.430;2022-07-04T03:10:49;14.20;99.90
6639;DHT22;3355;52.882;8.430;2022-07-04T03:13:16;14.20;99.90
6639;DHT22;3355;52.882;8.430;2022-07-04T03:15:44;14.20;99.90
6639;DHT22;3355;52.882;8.430;2022-07-04T03:18:12;14.20;99.90
6639;DHT22;3355;52.882;8.430;2022-07-04T03:20:39;14.10;99.90
6639;DHT22;3355;52.882;8.430;2022-07-04T03:23:05;14.10;99.90
6639;DHT22;3355;52.882;8.430;2022-07-04T03:25:33;14.10;99.90
6639;DHT22;3355;52.882;8.430;2022-07-04T03:28:00;14.00;99.90
6639;DHT22;3355;52.882;8.430;2022-07-04T03:30:27;14.00;99.90
6639;DHT22;3355;52.882;8.430;2022-07-04T03:32:54;14.00;99.90
6639;DHT22;3355;52.882;8.430;2022-07-04T03:35:22;14.00;99.90
6639;DHT22;3355;52.882;8.430;2022-07-04T03:37:48;13.90;99.90
6639;DHT22;3355;52.882;8.430;2022-07-04T03:40:16;13.90;99.90
6639;DHT22;3355;52.882;8.430;2022-07-04T03:42:43;13.90;99.90
6639;DHT22;3355;52.882;8.430;2022-07-04T03:45:10;13.90;99.90
6639;DHT22;3355;52.882;8.430;2022-07-04T03:47:37;13.90;99.90
6639;DHT22;3355;52.882;8.430;2022-07-04T03:50:04;13.90;99.90
6639;DHT22;3355;52.882;8.430;2022-07-04T03:52:33;13.90;99.90
6639;DHT22;3355;52.882;8.430;2022-07-04T03:54:59;13.90;99.90
6639;DHT22;3355;52.882;8.430;2022-07-04T03:57:26;13.90;99.90
6639;DHT22;3355;52.882;8.430;2022-07-04T03:59:53;13.90;99.90
6639;DHT22;3355;52.882;8.430;2022-07-04T04:02:20;13.90;99.90
6639;DHT22;3355;52.882;8.430;2022-07-04T04:04:47;13.90;99.90
6639;DHT22;3355;52.882;8.430;2022-07-04T04:07:32;13.90;99.90
6639;DHT22;3355;52.882;8.430;2022-07-04T04:09:59;13.90;99.90
6639;DHT22;3355;52.882;8.430;2022-07-04T04:12:26;13.90;99.90
6639;DHT22;3355;52.882;8.430;2022-07-04T04:14:52;13.90;99.90
6639;DHT22;3355;52.882;8.430;2022-07-04T04:17:19;13.90;99.90
6639;DHT22;3355;52.882;8.430;2022-07-04T04:19:46;13.90;99.90
6639;DHT22;3355;52.882;8.430;2022-07-04T04:22:13;13.90;99.90
6639;DHT22;3355;52.882;8.430;2022-07-04T04:24:41;13.90;99.90
6639;DHT22;3355;52.882;8.430;2022-07-04T04:27:08;13.90;99.90
6639;DHT22;3355;52.882;8.430;2022-07-04T04:29:35;13.90;99.90
6639;DHT22;3355;52.882;8.430;2022-07-04T04:32:02;14.00;99.90
6639;DHT22;3355;52.882;8.430;2022-07-04T04:34:28;14.00;99.90
6639;DHT22;3355;52.882;8.430;2022-07-04T04:36:55;14.00;99.90
6639;DHT22;3355;52.882;8.430;2022-07-04T04:39:22;14.00;99.90
6639;DHT22;3355;52.882;8.430;2022-07-04T04:41:50;14.00;99.90
6639;DHT22;3355;52.882;8.430;2022-07-04T04:44:17;14.00;99.90
6639;DHT22;3355;52.882;8.430;2022-07-04T04:46:44;14.10;99.90
6639;DHT22;3355;52.882;8.430;2022-07-04T04:49:11;14.10;99.90
6639;DHT22;3355;52.882;8.430;2022-07-04T04:51:38;14.10;99.90
6639;DHT22;3355;52.882;8.430;2022-07-04T04:54:05;14.20;99.90
6639;DHT22;3355;52.882;8.430;2022-07-04T04:56:32;14.20;99.90
6639;DHT22;3355;52.882;8.430;2022-07-04T04:59:00;14.20;99.90
6639;DHT22;3355;52.882;8.430;2022-07-04T05:01:27;14.30;99.90
6639;DHT22;3355;52.882;8.430;2022-07-04T05:03:54;14.30;99.90
6639;DHT22;3355;52.882;8.430;2022-07-04T05:06:21;14.30;99.90
6639;DHT22;3355;52.882;8.430;2022-07-04T05:08:48;14.40;99.90
6639;DHT22;3355;52.882;8.430;2022-07-04T05:11:15;14.40;99.90
6639;DHT22;3355;52.882;8.430;2022-07-04T05:13:41;14.40;99.90
6639;DHT22;3355;52.882;8.430;2022-07-04T05:16:10;14.50;99.90
6639;DHT22;3355;52.882;8.430;2022-07-04T05:18:37;14.60;99.90
6639;DHT22;3355;52.882;8.430;2022-07-04T05:21:03;14.60;99.90
6639;DHT22;3355;52.882;8.430;2022-07-04T05:23:30;14.60;99.90
6639;DHT22;3355;52.882;8.430;2022-07-04T05:25:57;14.70;99.90
6639;DHT22;3355;52.882;8.430;2022-07-04T05:28:23;14.70;99.90
6639;DHT22;3355;52.882;8.430;2022-07-04T05:30:50;14.70;99.90
6639;DHT22;3355;52.882;8.430;2022-07-04T05:33:18;14.80;99.90
6639;DHT22;3355;52.882;8.430;2022-07-04T05:35:45;14.90;99.90
6639;DHT22;3355;52.882;8.430;2022-07-04T05:38:12;14.90;99.90
6639;DHT22;3355;52.882;8.430;2022-07-04T05:40:38;15.00;99.90
6639;DHT22;3355;52.882;8.430;2022-07-04T05:43:05;15.00;99.90
6639;DHT22;3355;52.882;8.430;2022-07-04T05:45:32;15.10;99.90
6639;DHT22;3355;52.882;8.430;2022-07-04T05:47:58;15.10;99.90
6639;DHT22;3355;52.882;8.430;2022-07-04T05:50:27;15.20;99.90
6639;DHT22;3355;52.882;8.430;2022-07-04T05:52:53;15.20;99.90
6639;DHT22;3355;52.882;8.430;2022-07-04T05:55:20;15.30;99.90
6639;DHT22;3355;52.882;8.430;2022-07-04T05:57:47;15.30;99.90
6639;DHT22;3355;52.882;8.430;2022-07-04T06:00:14;15.40;99.90
6639;DHT22;3355;52.882;8.430;2022-07-04T06:02:41;15.50;99.90
6639;DHT22;3355;52.882;8.430;2022-07-04T06:05:08;15.50;99.90
6639;DHT22;3355;52.882;8.430;2022-07-04T06:07:36;15.60;99.90
6639;DHT22;3355;52.882;8.430;2022-07-04T06:10:03;15.60;99.90
6639;DHT22;3355;52.882;8.430;2022-07-04T06:12:30;15.70;99.90
6639;DHT22;3355;52.882;8.430;2022-07-04T06:14:57;15.70;99.90
6639;DHT22;3355;52.882;8.430;2022-07-04T06:17:24;15.80;99.90
6639;DHT22;3355;52.882;8.430;2022-07-04T06:19:50;15.90;99.90
6639;DHT22;3355;52.882;8.430;2022-07-04T06:22:17;15.90;99.90
6639;DHT22;3355;52.882;8.430;2022-07-04T06:24:45;16.00;99.90
6639;DHT22;3355;52.882;8.430;2022-07-04T06:27:12;16.00;99.90
6639;DHT22;3355;52.882;8.430;2022-07-04T06:29:39;16.10;99.90
6639;DHT22;3355;52.882;8.430;2022-07-04T06:32:06;16.20;99.90
6639;DHT22;3355;52.882;8.430;2022-07-04T06:34:33;16.30;99.90
6639;DHT22;3355;52.882;8.430;2022-07-04T06:37:26;16.30;99.90
6639;DHT22;3355;52.882;8.430;2022-07-04T06:39:54;16.40;99.90
6639;DHT22;3355;52.882;8.430;2022-07-04T06:42:21;16.50;99.90
6639;DHT22;3355;52.882;8.430;2022-07-04T06:44:48;16.60;99.90
6639;DHT22;3355;52.882;8.430;2022-07-04T06:47:14;16.70;99.90
6639;DHT22;3355;52.882;8.430;2022-07-04T06:49:41;16.70;99.90
6639;DHT22;3355;52.882;8.430;2022-07-04T06:52:08;16.80;99.90
6639;DHT22;3355;52.882;8.430;2022-07-04T06:54:34;16.90;99.90
6639;DHT22;3355;52.882;8.430;2022-07-04T06:57:03;17.00;99.90
6639;DHT22;3355;52.882;8.430;2022-07-04T06:59:30;17.10;99.90
6639;DHT22;3355;52.882;8.430;2022-07-04T07:01:57;17.30;99.90
6639;DHT22;3355;52.882;8.430;2022-07-04T07:04:23;17.40;99.90
6639;DHT22;3355;52.882;8.430;2022-07-04T07:06:50;17.60;99.90
6639;DHT22;3355;52.882;8.430;2022-07-04T07:09:17;17.70;99.90
6639;DHT22;3355;52.882;8.430;2022-07-04T07:11:43;17.80;99.90
6639;DHT22;3355;52.882;8.430;2022-07-04T07:14:12;18.00;99.90
6639;DHT22;3355;52.882;8.430;2022-07-04T07:16:39;18.10;99.90
6639;DHT22;3355;52.882;8.430;2022-07-04T07:19:06;18.10;99.90
6639;DHT22;3355;52.882;8.430;2022-07-04T07:21:32;18.20;99.90
6639;DHT22;3355;52.882;8.430;2022-07-04T07:23:59;18.40;99.90
6639;DHT22;3355;52.882;8.430;2022-07-04T07:26:26;18.50;99.90
6639;DHT22;3355;52.882;8.430;2022-07-04T07:28:53;18.60;99.90
6639;DHT22;3355;52.882;8.430;2022-07-04T07:31:21;18.80;99.90
6639;DHT22;3355;52.882;8.430;2022-07-04T07:33:48;19.00;99.90
6639;DHT22;3355;52.882;8.430;2022-07-04T07:36:15;19.20;99.90
6639;DHT22;3355;52.882;8.430;2022-07-04T07:38:41;19.40;99.90
6639;DHT22;3355;52.882;8.430;2022-07-04T07:41:09;19.60;99.90
6639;DHT22;3355;52.882;8.430;2022-07-04T07:43:36;19.80;99.90
6639;DHT22;3355;52.882;8.430;2022-07-04T07:46:04;20.00;99.90
6639;DHT22;3355;52.882;8.430;2022-07-04T07:48:33;20.10;99.90
6639;DHT22;3355;52.882;8.430;2022-07-04T07:51:00;20.40;99.90
6639;DHT22;3355;52.882;8.430;2022-07-04T07:53:27;20.50;99.90
6639;DHT22;3355;52.882;8.430;2022-07-04T07:55:53;20.70;99.90
6639;DHT22;3355;52.882;8.430;2022-07-04T07:58:20;20.80;99.90
6639;DHT22;3355;52.882;8.430;2022-07-04T08:00:47;21.00;99.90
6639;DHT22;3355;52.882;8.430;2022-07-04T08:03:14;21.20;99.90
6639;DHT22;3355;52.882;8.430;2022-07-04T08:05:59;21.50;99.90
6639;DHT22;3355;52.882;8.430;2022-07-04T08:08:26;21.50;99.90
6639;DHT22;3355;52.882;8.430;2022-07-04T08:10:53;21.90;99.90
6639;DHT22;3355;52.882;8.430;2022-07-04T08:13:20;21.90;99.90
6639;DHT22;3355;52.882;8.430;2022-07-04T08:15:46;21.90;99.90
6639;DHT22;3355;52.882;8.430;2022-07-04T08:18:13;22.10;99.90
6639;DHT22;3355;52.882;8.430;2022-07-04T08:20:41;22.20;99.90
6639;DHT22;3355;52.882;8.430;2022-07-04T08:23:10;22.20;99.90
6639;DHT22;3355;52.882;8.430;2022-07-04T08:25:36;22.30;99.90
6639;DHT22;3355;52.882;8.430;2022-07-04T08:28:03;22.60;99.90
6639;DHT22;3355;52.882;8.430;2022-07-04T08:30:30;22.60;99.90
6639;DHT22;3355;52.882;8.430;2022-07-04T08:32:57;22.70;99.90
6639;DHT22;3355;52.882;8.430;2022-07-04T08:35:24;22.90;99.90
6639;DHT22;3355;52.882;8.430;2022-07-04T08:37:51;23.20;99.90
6639;DHT22;3355;52.882;8.430;2022-07-04T08:40:20;23.40;99.90
6639;DHT22;3355;52.882;8.430;2022-07-04T08:42:48;23.60;99.90
6639;DHT22;3355;52.882;8.430;2022-07-04T08:45:16;23.40;99.90
6639;DHT22;3355;52.882;8.430;2022-07-04T08:47:44;23.10;99.90
6639;DHT22;3355;52.882;8.430;2022-07-04T08:50:18;22.80;99.90
6639;DHT22;3355;52.882;8.430;2022-07-04T08:52:53;22.60;99.90
6639;DHT22;3355;52.882;8.430;2022-07-04T08:55:22;22.70;99.90
6639;DHT22;3355;52.882;8.430;2022-07-04T08:58:07;23.00;99.90
6639;DHT22;3355;52.882;8.430;2022-07-04T09:00:56;23.20;99.90
6639;DHT22;3355;52.882;8.430;2022-07-04T09:03:23;23.20;99.90
6639;DHT22;3355;52.882;8.430;2022-07-04T09:05:50;23.10;99.90
6639;DHT22;3355;52.882;8.430;2022-07-04T09:08:17;22.90;99.90
6639;DHT22;3355;52.882;8.430;2022-07-04T09:10:46;23.00;99.90
6639;DHT22;3355;52.882;8.430;2022-07-04T09:13:13;23.20;99.90
6639;DHT22;3355;52.882;8.430;2022-07-04T09:15:41;23.50;99.90
6639;DHT22;3355;52.882;8.430;2022-07-04T09:18:20;23.60;99.90
6639;DHT22;3355;52.882;8.430;2022-07-04T09:20:47;23.70;99.90
6639;DHT22;3355;52.882;8.430;2022-07-04T09:23:17;23.90;99.90
6639;DHT22;3355;52.882;8.430;2022-07-04T09:25:46;24.10;99.90
6639;DHT22;3355;52.882;8.430;2022-07-04T09:28:26;24.30;99.90
6639;DHT22;3355;52.882;8.430;2022-07-04T09:30:53;24.50;99.90
6639;DHT22;3355;52.882;8.430;2022-07-04T09:33:20;24.80;99.90
6639;DHT22;3355;52.882;8.430;2022-07-04T09:35:48;24.90;99.90
6639;DHT22;3355;52.882;8.430;2022-07-04T09:38:22;25.10;99.90
6639;DHT22;3355;52.882;8.430;2022-07-04T09:40:52;25.40;99.90
6639;DHT22;3355;52.882;8.430;2022-07-04T09:43:37;25.40;99.90
6639;DHT22;3355;52.882;8.430;2022-07-04T09:46:24;24.90;99.90
6639;DHT22;3355;52.882;8.430;2022-07-04T09:48:51;24.60;99.90
6639;DHT22;3355;52.882;8.430;2022-07-04T09:51:35;24.90;99.90
6639;DHT22;3355;52.882;8.430;2022-07-04T09:54:15;25.20;99.90
6639;DHT22;3355;52.882;8.430;2022-07-04T09:56:45;25.30;99.90
6639;DHT22;3355;52.882;8.430;2022-07-04T09:59:12;25.50;99.90
6639;DHT22;3355;52.882;8.430;2022-07-04T10:01:39;25.70;99.90
6639;DHT22;3355;52.882;8.430;2022-07-04T10:04:06;25.50;99.90
6639;DHT22;3355;52.882;8.430;2022-07-04T10:06:37;25.40;99.90
6639;DHT22;3355;52.882;8.430;2022-07-04T10:09:11;25.00;99.90
6639;DHT22;3355;52.882;8.430;2022-07-04T10:11:40;24.90;99.90
6639;DHT22;3355;52.882;8.430;2022-07-04T10:14:09;24.80;99.90
6639;DHT22;3355;52.882;8.430;2022-07-04T10:16:37;25.00;99.90
6639;DHT22;3355;52.882;8.430;2022-07-04T10:19:05;24.70;99.90
6639;DHT22;3355;52.882;8.430;2022-07-04T10:21:32;24.70;99.90
6639;DHT22;3355;52.882;8.430;2022-07-04T10:24:00;24.90;99.90
6639;DHT22;3355;52.882;8.430;2022-07-04T10:26:29;24.90;99.90
6639;DHT22;3355;52.882;8.430;2022-07-04T10:28:56;25.20;99.90
6639;DHT22;3355;52.882;8.430;2022-07-04T10:31:27;25.10;99.90
6639;DHT22;3355;52.882;8.430;2022-07-04T10:33:55;25.20;99.90
6639;DHT22;3355;52.882;8.430;2022-07-04T10:36:24;25.60;99.90
6639;DHT22;3355;52.882;8.430;2022-07-04T10:38:55;26.00;99.90
6639;DHT22;3355;52.882;8.430;2022-07-04T10:41:25;26.00;99.90
6639;DHT22;3355;52.882;8.430;2022-07-04T10:43:59;25.50;99.90
6639;DHT22;3355;52.882;8.430;2022-07-04T10:46:30;25.70;99.90
6639;DHT22;3355;52.882;8.430;2022-07-04T10:48:58;25.30;99.90
6639;DHT22;3355;52.882;8.430;2022-07-04T10:51:33;25.30;99.90
6639;DHT22;3355;52.882;8.430;2022-07-04T10:54:02;25.20;99.90
6639;DHT22;3355;52.882;8.430;2022-07-04T10:56:35;25.10;99.90
6639;DHT22;3355;52.882;8.430;2022-07-04T10:59:07;25.10;99.90
6639;DHT22;3355;52.882;8.430;2022-07-04T11:01:36;25.20;99.90
6639;DHT22;3355;52.882;8.430;2022-07-04T11:04:03;25.10;99.90
6639;DHT22;3355;52.882;8.430;2022-07-04T11:06:51;25.10;99.90
6639;DHT22;3355;52.882;8.430;2022-07-04T11:09:22;25.00;99.90
6639;DHT22;3355;52.882;8.430;2022-07-04T11:11:55;24.90;99.90
6639;DHT22;3355;52.882;8.430;2022-07-04T11:14:37;24.70;99.90
6639;DHT22;3355;52.882;8.430;2022-07-04T11:17:06;24.70;99.90
6639;DHT22;3355;52.882;8.430;2022-07-04T11:19:34;24.70;99.90
6639;DHT22;3355;52.882;8.430;2022-07-04T11:22:01;24.80;99.90
6639;DHT22;3355;52.882;8.430;2022-07-04T11:24:29;25.10;99.90
6639;DHT22;3355;52.882;8.430;2022-07-04T11:26:56;25.50;99.90
6639;DHT22;3355;52.882;8.430;2022-07-04T11:29:24;25.60;99.90
6639;DHT22;3355;52.882;8.430;2022-07-04T11:31:52;25.40;99.90
6639;DHT22;3355;52.882;8.430;2022-07-04T11:34:21;25.10;99.90
6639;DHT22;3355;52.882;8.430;2022-07-04T11:36:50;25.30;99.90
6639;DHT22;3355;52.882;8.430;2022-07-04T11:39:18;25.40;99.90
6639;DHT22;3355;52.882;8.430;2022-07-04T11:41:47;25.60;99.90
6639;DHT22;3355;52.882;8.430;2022-07-04T11:44:33;25.70;99.90
6639;DHT22;3355;52.882;8.430;2022-07-04T11:47:19;25.30;99.90
6639;DHT22;3355;52.882;8.430;2022-07-04T11:49:50;25.10;99.90
6639;DHT22;3355;52.882;8.430;2022-07-04T11:52:19;25.50;99.90
6639;DHT22;3355;52.882;8.430;2022-07-04T11:54:47;25.50;99.90
6639;DHT22;3355;52.882;8.430;2022-07-04T11:57:17;25.40;99.90
6639;DHT22;3355;52.882;8.430;2022-07-04T11:59:52;25.40;99.90
6639;DHT22;3355;52.882;8.430;2022-07-04T12:02:19;25.30;99.90
6639;DHT22;3355;52.882;8.430;2022-07-04T12:04:48;25.30;99.90
6639;DHT22;3355;52.882;8.430;2022-07-04T12:07:17;25.10;99.90
6639;DHT22;3355;52.882;8.430;2022-07-04T12:09:45;25.10;99.90
6639;DHT22;3355;52.882;8.430;2022-07-04T12:12:12;25.40;99.90
6639;DHT22;3355;52.882;8.430;2022-07-04T12:14:39;25.60;99.90
6639;DHT22;3355;52.882;8.430;2022-07-04T12:17:17;25.70;99.90
6639;DHT22;3355;52.882;8.430;2022-07-04T12:19:56;25.60;99.90
6639;DHT22;3355;52.882;8.430;2022-07-04T12:22:31;25.70;99.90
6639;DHT22;3355;52.882;8.430;2022-07-04T12:24:59;26.00;99.90
6639;DHT22;3355;52.882;8.430;2022-07-04T12:27:26;26.00;99.90
6639;DHT22;3355;52.882;8.430;2022-07-04T12:29:55;25.80;99.90
6639;DHT22;3355;52.882;8.430;2022-07-04T12:32:23;25.60;99.90
6639;DHT22;3355;52.882;8.430;2022-07-04T12:34:50;25.90;99.90
6639;DHT22;3355;52.882;8.430;2022-07-04T12:37:18;26.00;99.90
6639;DHT22;3355;52.882;8.430;2022-07-04T12:39:45;26.40;99.90
6639;DHT22;3355;52.882;8.430;2022-07-04T12:42:14;26.40;99.90
6639;DHT22;3355;52.882;8.430;2022-07-04T12:44:42;26.30;99.90
6639;DHT22;3355;52.882;8.430;2022-07-04T12:47:10;26.40;99.90
6639;DHT22;3355;52.882;8.430;2022-07-04T12:49:41;26.20;99.90
6639;DHT22;3355;52.882;8.430;2022-07-04T12:52:11;26.30;99.90
6639;DHT22;3355;52.882;8.430;2022-07-04T12:54:40;26.20;99.90
6639;DHT22;3355;52.882;8.430;2022-07-04T12:57:10;26.30;99.90
6639;DHT22;3355;52.882;8.430;2022-07-04T12:59:37;26.40;99.90
6639;DHT22;3355;52.882;8.430;2022-07-04T13:02:04;26.40;99.90
6639;DHT22;3355;52.882;8.430;2022-07-04T13:04:31;26.60;99.90
6639;DHT22;3355;52.882;8.430;2022-07-04T13:07:00;26.60;99.90
6639;DHT22;3355;52.882;8.430;2022-07-04T13:09:37;26.50;99.90
6639;DHT22;3355;52.882;8.430;2022-07-04T13:12:06;26.50;99.90
6639;DHT22;3355;52.882;8.430;2022-07-04T13:14:51;26.50;99.90
6639;DHT22;3355;52.882;8.430;2022-07-04T13:17:18;26.60;99.90
6639;DHT22;3355;52.882;8.430;2022-07-04T13:19:45;26.40;99.90
6639;DHT22;3355;52.882;8.430;2022-07-04T13:22:11;26.50;99.90
6639;DHT22;3355;52.882;8.430;2022-07-04T13:24:38;26.40;99.90
6639;DHT22;3355;52.882;8.430;2022-07-04T13:27:07;26.40;99.90
6639;DHT22;3355;52.882;8.430;2022-07-04T13:29:33;26.50;99.90
6639;DHT22;3355;52.882;8.430;2022-07-04T13:32:00;26.50;99.90
6639;DHT22;3355;52.882;8.430;2022-07-04T13:34:27;26.30;99.90
6639;DHT22;3355;52.882;8.430;2022-07-04T13:36:54;26.10;99.90
6639;DHT22;3355;52.882;8.430;2022-07-04T13:39:21;26.00;99.90
6639;DHT22;3355;52.882;8.430;2022-07-04T13:41:48;25.70;99.90
6639;DHT22;3355;52.882;8.430;2022-07-04T13:44:16;25.70;99.90
6639;DHT22;3355;52.882;8.430;2022-07-04T13:46:43;25.60;99.90
6639;DHT22;3355;52.882;8.430;2022-07-04T13:49:10;25.50;99.90
6639;DHT22;3355;52.882;8.430;2022-07-04T13:51:37;25.50;99.90
6639;DHT22;3355;52.882;8.430;2022-07-04T13:54:04;25.60;99.90
6639;DHT22;3355;52.882;8.430;2022-07-04T13:56:31;25.80;99.90
6639;DHT22;3355;52.882;8.430;2022-07-04T13:58:59;25.90;99.90
6639;DHT22;3355;52.882;8.430;2022-07-04T14:01:27;26.00;99.90
6639;DHT22;3355;52.882;8.430;2022-07-04T14:03:54;25.90;99.90
6639;DHT22;3355;52.882;8.430;2022-07-04T14:06:21;25.90;99.90
6639;DHT22;3355;52.882;8.430;2022-07-04T14:08:48;26.00;99.90
6639;DHT22;3355;52.882;8.430;2022-07-04T14:11:14;26.10;99.90
6639;DHT22;3355;52.882;8.430;2022-07-04T14:13:41;26.10;99.90
6639;DHT22;3355;52.882;8.430;2022-07-04T14:16:08;26.20;99.90
6639;DHT22;3355;52.882;8.430;2022-07-04T14:18:36;26.20;99.90
6639;DHT22;3355;52.882;8.430;2022-07-04T14:21:03;26.10;99.90
6639;DHT22;3355;52.882;8.430;2022-07-04T14:23:30;26.00;99.90
6639;DHT22;3355;52.882;8.430;2022-07-04T14:26:12;26.10;99.90
6639;DHT22;3355;52.882;8.430;2022-07-04T14:28:40;25.80;99.90
6639;DHT22;3355;52.882;8.430;2022-07-04T14:31:07;25.80;99.90
6639;DHT22;3355;52.882;8.430;2022-07-04T14:33:36;25.90;99.90
6639;DHT22;3355;52.882;8.430;2022-07-04T14:36:04;26.10;99.90
6639;DHT22;3355;52.882;8.430;2022-07-04T14:38:32;26.10;99.90
6639;DHT22;3355;52.882;8.430;2022-07-04T14:40:58;26.10;99.90
6639;DHT22;3355;52.882;8.430;2022-07-04T14:43:38;26.10;99.90
6639;DHT22;3355;52.882;8.430;2022-07-04T14:46:05;26.00;99.90
6639;DHT22;3355;52.882;8.430;2022-07-04T14:48:32;26.00;99.90
6639;DHT22;3355;52.882;8.430;2022-07-04T14:51:01;26.10;99.90
6639;DHT22;3355;52.882;8.430;2022-07-04T14:53:28;26.10;99.90
6639;DHT22;3355;52.882;8.430;2022-07-04T14:55:55;25.90;99.90
6639;DHT22;3355;52.882;8.430;2022-07-04T14:58:22;25.80;99.90
6639;DHT22;3355;52.882;8.430;2022-07-04T15:00:49;26.00;99.90
6639;DHT22;3355;52.882;8.430;2022-07-04T15:03:15;25.90;99.90
6639;DHT22;3355;52.882;8.430;2022-07-04T15:05:42;25.80;99.90
6639;DHT22;3355;52.882;8.430;2022-07-04T15:08:11;25.70;99.90
6639;DHT22;3355;52.882;8.430;2022-07-04T15:10:38;25.70;99.90
6639;DHT22;3355;52.882;8.430;2022-07-04T15:13:05;25.80;99.90
6639;DHT22;3355;52.882;8.430;2022-07-04T15:15:32;25.70;99.90
6639;DHT22;3355;52.882;8.430;2022-07-04T15:17:59;25.70;99.90
6639;DHT22;3355;52.882;8.430;2022-07-04T15:20:26;25.70;99.90
6639;DHT22;3355;52.882;8.430;2022-07-04T15:23:11;25.60;99.90
6639;DHT22;3355;52.882;8.430;2022-07-04T15:25:55;25.50;99.90
6639;DHT22;3355;52.882;8.430;2022-07-04T15:28:23;25.30;99.90
6639;DHT22;3355;52.882;8.430;2022-07-04T15:30:50;25.10;99.90
6639;DHT22;3355;52.882;8.430;2022-07-04T15:33:16;25.10;99.90
6639;DHT22;3355;52.882;8.430;2022-07-04T15:35:44;24.90;99.90
6639;DHT22;3355;52.882;8.430;2022-07-04T15:38:12;24.80;99.90
6639;DHT22;3355;52.882;8.430;2022-07-04T15:40:41;24.90;99.90
6639;DHT22;3355;52.882;8.430;2022-07-04T15:43:08;24.90;99.90
6639;DHT22;3355;52.882;8.430;2022-07-04T15:45:34;25.00;99.90
6639;DHT22;3355;52.882;8.430;2022-07-04T15:48:01;25.00;99.90
6639;DHT22;3355;52.882;8.430;2022-07-04T15:50:28;25.00;99.90
6639;DHT22;3355;52.882;8.430;2022-07-04T15:52:55;24.90;99.90
6639;DHT22;3355;52.882;8.430;2022-07-04T15:55:23;24.90;99.90
6639;DHT22;3355;52.882;8.430;2022-07-04T15:57:49;24.90;99.90
6639;DHT22;3355;52.882;8.430;2022-07-04T16:00:18;24.80;99.90
6639;DHT22;3355;52.882;8.430;2022-07-04T16:02:45;24.70;99.90
6639;DHT22;3355;52.882;8.430;2022-07-04T16:05:11;24.70;99.90
6639;DHT22;3355;52.882;8.430;2022-07-04T16:07:38;24.70;99.90
6639;DHT22;3355;52.882;8.430;2022-07-04T16:10:06;24.70;99.90